createdAt,value
2018-09-21T00:00:30.505Z,4.10
2018-09-21T00:02:33.882Z,3.53
2018-09-21T00:04:37.128Z,4.20
2018-09-21T00:06:41.184Z,3.33
2018-09-21T00:08:44.348Z,4.30
2018-09-21T00:10:47.786Z,3.67
2018-09-21T00:12:50.972Z,3.50
2018-09-21T00:14:54.352Z,4.50
2018-09-21T00:16:57.964Z,4.30
2018-09-21T00:19:01.394Z,3.63
2018-09-21T00:21:04.732Z,3.73
2018-09-21T00:23:08.166Z,3.87
2018-09-21T00:25:11.336Z,4.00
2018-09-21T00:27:14.524Z,3.40
2018-09-21T00:29:18.069Z,4.33
2018-09-21T00:31:21.236Z,4.60
2018-09-21T00:33:24.579Z,3.27
2018-09-21T00:35:27.988Z,4.10
2018-09-21T00:37:31.605Z,3.57
2018-09-21T00:39:34.780Z,3.93
2018-09-21T00:41:37.992Z,3.73
2018-09-21T00:43:41.180Z,3.70
2018-09-21T00:45:44.676Z,3.90
2018-09-21T00:47:48.133Z,3.47
2018-09-21T00:49:51.300Z,3.40
2018-09-21T00:51:54.449Z,3.80
2018-09-21T00:53:57.797Z,3.60
2018-09-21T00:56:00.980Z,3.93
2018-09-21T00:58:04.496Z,4.10
2018-09-21T01:00:07.979Z,3.60
2018-09-21T01:02:11.148Z,4.10
2018-09-21T01:04:14.348Z,3.40
2018-09-21T01:06:17.862Z,3.80
2018-09-21T01:08:21.016Z,4.23
2018-09-21T01:10:24.413Z,4.00
2018-09-21T01:12:28.206Z,4.47
2018-09-21T01:14:31.368Z,4.30
2018-09-21T01:16:34.577Z,4.50
2018-09-21T01:18:37.854Z,4.03
2018-09-21T01:20:41.059Z,3.50
2018-09-21T01:22:44.256Z,3.60
2018-09-21T01:24:47.436Z,4.20
2018-09-21T01:26:50.808Z,4.20
2018-09-21T01:28:53.981Z,4.00
2018-09-21T01:30:57.220Z,3.60
2018-09-21T01:33:00.404Z,3.70
2018-09-21T01:35:03.580Z,4.77
2018-09-21T01:37:06.836Z,3.90
2018-09-21T01:39:10.923Z,3.90
2018-09-21T01:41:14.493Z,3.60
2018-09-21T01:43:17.710Z,3.90
2018-09-21T01:45:21.204Z,3.97
2018-09-21T01:47:24.393Z,3.73
2018-09-21T01:49:27.801Z,4.10
2018-09-21T01:51:31.288Z,4.80
2018-09-21T01:53:34.857Z,3.80
2018-09-21T01:55:38.324Z,3.70
2018-09-21T01:57:41.544Z,3.80
2018-09-21T01:59:45.028Z,4.07
2018-09-21T02:01:48.488Z,3.77
2018-09-21T02:03:52.377Z,4.20
2018-09-21T02:05:55.820Z,4.03
2018-09-21T02:07:59.064Z,3.97
2018-09-21T02:10:02.277Z,4.43
2018-09-21T02:12:05.684Z,4.07
2018-09-21T02:14:08.885Z,3.67
2018-09-21T02:16:12.052Z,3.80
2018-09-21T02:18:15.556Z,3.90
2018-09-21T02:20:18.781Z,3.60
2018-09-21T02:22:21.948Z,4.07
2018-09-21T02:24:25.156Z,3.80
2018-09-21T02:26:28.516Z,4.90
2018-09-21T02:28:31.732Z,3.60
2018-09-21T02:30:35.280Z,4.50
2018-09-21T02:32:38.667Z,4.00
2018-09-21T02:34:41.855Z,3.80
2018-09-21T02:36:45.033Z,3.83
2018-09-21T02:38:49.599Z,3.83
2018-09-21T02:40:52.809Z,4.03
2018-09-21T02:42:56.056Z,3.60
2018-09-21T02:44:59.208Z,3.60
2018-09-21T02:47:02.957Z,4.20
2018-09-21T02:49:06.670Z,3.43
2018-09-21T02:51:09.844Z,4.00
2018-09-21T02:53:13.069Z,3.63
2018-09-21T02:55:16.248Z,4.03
2018-09-21T02:57:19.408Z,4.73
2018-09-21T02:59:22.908Z,3.93
2018-09-21T03:01:26.120Z,4.00
2018-09-21T03:03:29.282Z,3.30
2018-09-21T03:05:32.839Z,4.10
2018-09-21T03:07:35.997Z,3.83
2018-09-21T03:09:39.172Z,4.03
2018-09-21T03:11:42.337Z,3.27
2018-09-21T03:13:46.537Z,4.07
2018-09-21T03:15:50.309Z,3.47
2018-09-21T03:17:53.652Z,4.30
2018-09-21T03:19:57.127Z,3.50
2018-09-21T03:22:00.564Z,4.00
2018-09-21T03:24:04.064Z,4.53
2018-09-21T03:26:08.122Z,4.13
2018-09-21T03:28:11.503Z,3.67
2018-09-21T03:30:15.057Z,4.40
2018-09-21T03:32:18.228Z,4.00
2018-09-21T03:34:21.580Z,4.20
2018-09-21T03:36:24.761Z,4.00
2018-09-21T03:38:28.028Z,4.20
2018-09-21T03:40:31.205Z,3.73
2018-09-21T03:42:34.420Z,3.40
2018-09-21T03:44:37.567Z,3.90
2018-09-21T03:46:41.151Z,4.90
2018-09-21T03:48:44.497Z,3.70
2018-09-21T03:50:48.043Z,4.03
2018-09-21T03:52:51.508Z,3.93
2018-09-21T03:54:54.777Z,4.00
2018-09-21T03:56:58.096Z,3.80
2018-09-21T03:59:01.282Z,4.37
2018-09-21T04:01:04.666Z,4.30
2018-09-21T04:03:08.396Z,4.20
2018-09-21T04:05:11.840Z,3.37
2018-09-21T04:07:15.309Z,3.43
2018-09-21T04:09:18.578Z,3.70
2018-09-21T04:11:21.983Z,4.40
2018-09-21T04:13:25.368Z,4.00
2018-09-21T04:15:28.808Z,4.33
2018-09-21T04:17:32.182Z,4.50
2018-09-21T04:19:35.380Z,4.10
2018-09-21T04:21:38.804Z,3.70
2018-09-21T04:23:42.003Z,4.60
2018-09-21T04:25:45.372Z,4.40
2018-09-21T04:27:48.580Z,3.90
2018-09-21T04:29:51.752Z,4.50
2018-09-21T04:31:54.997Z,4.90
2018-09-21T04:33:58.637Z,3.80
2018-09-21T04:36:02.511Z,3.90
2018-09-21T04:38:06.168Z,3.93
2018-09-21T04:40:09.876Z,4.30
2018-09-21T04:42:13.044Z,4.40
2018-09-21T04:44:16.212Z,3.83
2018-09-21T04:46:19.422Z,4.00
2018-09-21T04:48:22.616Z,4.10
2018-09-21T04:50:25.834Z,4.17
2018-09-21T04:52:29.026Z,4.67
2018-09-21T04:54:32.372Z,4.07
2018-09-21T04:56:35.549Z,4.03
2018-09-21T04:58:38.941Z,4.60
2018-09-21T05:00:42.118Z,5.10
2018-09-21T05:02:45.397Z,4.13
2018-09-21T05:04:48.800Z,4.30
2018-09-21T05:06:52.156Z,4.33
2018-09-21T05:08:55.560Z,4.60
2018-09-21T05:10:59.068Z,4.17
2018-09-21T05:13:02.329Z,4.23
2018-09-21T05:15:06.197Z,4.67
2018-09-21T05:17:09.572Z,3.60
2018-09-21T05:19:12.766Z,4.30
2018-09-21T05:21:16.200Z,4.50
2018-09-21T05:23:21.086Z,4.17
2018-09-21T05:25:24.268Z,4.23
2018-09-21T05:27:27.470Z,4.10
2018-09-21T05:29:31.488Z,3.87
2018-09-21T05:31:34.668Z,4.13
2018-09-21T05:33:37.840Z,4.50
2018-09-21T05:35:41.348Z,5.10
2018-09-21T05:37:44.560Z,4.70
2018-09-21T05:39:50.494Z,4.70
2018-09-21T05:41:54.200Z,4.43
2018-09-21T05:43:57.376Z,4.27
2018-09-21T05:46:00.573Z,4.77
2018-09-21T05:48:04.167Z,4.53
2018-09-21T05:50:07.332Z,4.20
2018-09-21T05:52:11.260Z,4.00
2018-09-21T05:54:14.698Z,3.47
2018-09-21T05:56:18.142Z,4.60
2018-09-21T05:58:21.484Z,5.37
2018-09-21T06:00:24.863Z,4.73
2018-09-21T06:02:28.160Z,5.57
2018-09-21T06:04:31.607Z,5.43
2018-09-21T06:06:34.824Z,5.43
2018-09-21T06:08:38.180Z,5.40
2018-09-21T06:10:41.389Z,4.73
2018-09-21T06:12:44.614Z,5.40
2018-09-21T06:14:47.829Z,4.40
2018-09-21T06:16:51.953Z,4.30
2018-09-21T06:18:55.143Z,4.70
2018-09-21T06:20:58.328Z,3.70
2018-09-21T06:23:01.731Z,4.47
2018-09-21T06:25:05.181Z,4.20
2018-09-21T06:27:08.701Z,4.67
2018-09-21T06:29:12.208Z,5.63
2018-09-21T06:31:15.608Z,3.40
2018-09-21T06:33:18.798Z,4.00
2018-09-21T06:35:22.728Z,4.90
2018-09-21T06:37:25.946Z,3.80
2018-09-21T06:39:29.183Z,2.60
2018-09-21T06:41:32.605Z,4.73
2018-09-21T06:43:35.872Z,4.30
2018-09-21T06:45:39.073Z,4.40
2018-09-21T06:47:42.245Z,5.10
2018-09-21T06:49:45.667Z,4.60
2018-09-21T06:51:48.984Z,5.67
2018-09-21T06:53:52.225Z,4.87
2018-09-21T06:55:55.597Z,4.67
2018-09-21T06:57:59.112Z,5.23
2018-09-21T07:00:02.312Z,4.20
2018-09-21T07:02:05.937Z,3.80
2018-09-21T07:04:09.337Z,3.57
2018-09-21T07:06:12.504Z,3.47
2018-09-21T07:08:15.729Z,4.63
2018-09-21T07:10:19.237Z,3.97
2018-09-21T07:12:22.424Z,4.43
2018-09-21T07:14:25.925Z,4.67
2018-09-21T07:16:29.432Z,3.50
2018-09-21T07:18:32.625Z,3.93
2018-09-21T07:20:36.202Z,3.20
2018-09-21T07:22:39.720Z,3.90
2018-09-21T07:24:42.900Z,3.03
2018-09-21T07:26:46.263Z,4.13
2018-09-21T07:28:49.892Z,4.13
2018-09-21T07:30:53.592Z,3.97
2018-09-21T07:32:56.960Z,3.80
2018-09-21T07:35:00.355Z,4.73
2018-09-21T07:37:03.747Z,3.93
2018-09-21T07:39:07.872Z,3.10
2018-09-21T07:41:11.099Z,3.20
2018-09-21T07:43:14.392Z,3.23
2018-09-21T07:45:17.936Z,4.10
2018-09-21T07:47:21.139Z,3.93
2018-09-21T07:49:24.308Z,4.47
2018-09-21T07:51:27.823Z,3.00
2018-09-21T07:53:31.037Z,2.77
2018-09-21T07:55:34.222Z,3.67
2018-09-21T07:57:37.384Z,4.40
2018-09-21T07:59:40.858Z,4.53
2018-09-21T08:01:44.407Z,4.10
2018-09-21T08:03:47.796Z,4.60
2018-09-21T08:05:51.336Z,5.30
2018-09-21T08:07:54.863Z,3.00
2018-09-21T08:09:58.074Z,4.07
2018-09-21T08:12:01.272Z,2.93
2018-09-21T08:14:05.567Z,3.40
2018-09-21T08:16:08.756Z,3.80
2018-09-21T08:18:12.182Z,4.30
2018-09-21T08:20:15.700Z,3.97
2018-09-21T08:22:18.940Z,3.60
2018-09-21T08:24:22.150Z,2.73
2018-09-21T08:26:25.648Z,3.50
2018-09-21T08:28:29.034Z,4.30
2018-09-21T08:30:32.361Z,3.97
2018-09-21T08:32:35.629Z,4.00
2018-09-21T08:34:38.815Z,3.90
2018-09-21T08:36:42.208Z,3.53
2018-09-21T08:38:45.408Z,3.20
2018-09-21T08:40:48.882Z,3.70
2018-09-21T08:42:52.348Z,3.27
2018-09-21T08:44:55.676Z,3.43
2018-09-21T08:46:58.864Z,4.00
2018-09-21T08:49:02.477Z,4.13
2018-09-21T08:51:05.800Z,3.17
2018-09-21T08:53:09.038Z,3.00
2018-09-21T08:55:13.065Z,3.90
2018-09-21T08:57:16.410Z,3.20
2018-09-21T08:59:19.632Z,2.80
2018-09-21T09:01:22.840Z,3.53
2018-09-21T09:03:26.246Z,3.10
2018-09-21T09:05:29.641Z,3.33
2018-09-21T09:07:33.208Z,2.63
2018-09-21T09:09:36.404Z,2.23
2018-09-21T09:11:39.936Z,3.50
2018-09-21T09:13:43.154Z,4.30
2018-09-21T09:15:46.452Z,4.17
2018-09-21T09:17:49.840Z,3.20
2018-09-21T09:19:53.332Z,4.60
2018-09-21T09:21:56.500Z,4.00
2018-09-21T09:23:59.701Z,3.80
2018-09-21T09:26:02.973Z,3.17
2018-09-21T09:28:06.172Z,3.37
2018-09-21T09:30:09.824Z,4.00
2018-09-21T09:32:13.459Z,3.10
2018-09-21T09:34:16.667Z,3.53
2018-09-21T09:36:19.957Z,4.30
2018-09-21T09:38:23.224Z,3.50
2018-09-21T09:40:26.404Z,5.23
2018-09-21T09:42:30.018Z,3.90
2018-09-21T09:44:33.200Z,4.03
2018-09-21T09:46:36.364Z,4.13
2018-09-21T09:48:39.774Z,3.10
2018-09-21T09:50:43.077Z,3.70
2018-09-21T09:52:46.245Z,3.57
2018-09-21T09:54:49.542Z,2.20
2018-09-21T09:56:53.198Z,4.40
2018-09-21T09:58:56.376Z,3.60
2018-09-21T10:00:59.582Z,2.27
2018-09-21T10:03:03.274Z,3.27
2018-09-21T10:05:06.916Z,3.20
2018-09-21T10:07:10.084Z,2.20
2018-09-21T10:09:13.310Z,2.87
2018-09-21T10:11:16.732Z,3.17
2018-09-21T10:13:19.909Z,3.20
2018-09-21T10:15:23.293Z,2.43
2018-09-21T10:17:26.580Z,1.70
2018-09-21T10:19:30.090Z,1.40
2018-09-21T10:21:33.430Z,1.53
2018-09-21T10:23:36.624Z,1.30
2018-09-21T10:25:39.844Z,1.13
2018-09-21T10:27:43.382Z,1.60
2018-09-21T10:29:46.886Z,1.63
2018-09-21T10:31:50.244Z,2.33
2018-09-21T10:33:53.618Z,1.97
2018-09-21T10:35:57.227Z,1.70
2018-09-21T10:38:00.733Z,1.30
2018-09-21T10:40:04.083Z,1.40
2018-09-21T10:42:07.620Z,1.50
2018-09-21T10:44:10.840Z,1.70
2018-09-21T10:46:14.020Z,1.30
2018-09-21T10:48:17.620Z,1.23
2018-09-21T10:50:21.167Z,1.27
2018-09-21T10:52:24.435Z,1.37
2018-09-21T10:54:27.626Z,2.20
2018-09-21T10:56:30.796Z,1.83
2018-09-21T10:58:33.972Z,2.40
2018-09-21T11:00:37.694Z,2.30
2018-09-21T11:02:41.071Z,2.50
2018-09-21T11:04:44.301Z,2.73
2018-09-21T11:06:47.818Z,1.87
2018-09-21T11:08:51.017Z,2.10
2018-09-21T11:10:54.195Z,2.67
2018-09-21T11:12:57.444Z,2.10
2018-09-21T11:15:01.116Z,2.40
2018-09-21T11:17:04.348Z,1.77
2018-09-21T11:19:07.525Z,1.77
2018-09-21T11:21:11.362Z,1.70
2018-09-21T11:23:14.552Z,1.83
2018-09-21T11:25:17.762Z,2.13
2018-09-21T11:27:21.177Z,1.80
2018-09-21T11:29:24.744Z,2.60
2018-09-21T11:31:27.918Z,1.57
2018-09-21T11:33:31.168Z,1.10
2018-09-21T11:35:34.904Z,2.00
2018-09-21T11:37:38.140Z,1.23
2018-09-21T11:39:41.393Z,2.23
2018-09-21T11:41:44.615Z,1.73
2018-09-21T11:43:48.002Z,1.70
2018-09-21T11:45:51.223Z,2.63
2018-09-21T11:47:54.404Z,1.80
2018-09-21T11:49:57.576Z,2.20
2018-09-21T11:52:00.852Z,2.13
2018-09-21T11:54:04.362Z,1.83
2018-09-21T11:56:07.584Z,1.87
2018-09-21T11:58:10.992Z,2.57
2018-09-21T12:00:14.177Z,2.87
2018-09-21T12:02:17.442Z,1.30
2018-09-21T12:04:20.600Z,2.10
2018-09-21T12:06:23.819Z,1.53
2018-09-21T12:08:27.113Z,2.67
2018-09-21T12:10:30.958Z,1.80
2018-09-21T12:12:34.325Z,2.40
2018-09-21T12:14:37.533Z,2.27
2018-09-21T12:16:40.743Z,1.90
2018-09-21T12:18:43.924Z,2.20
2018-09-21T12:20:47.136Z,2.60
2018-09-21T12:22:50.749Z,2.70
2018-09-21T12:24:54.103Z,2.17
2018-09-21T12:26:58.384Z,2.37
2018-09-21T12:29:01.980Z,1.83
2018-09-21T12:31:05.213Z,2.83
2018-09-21T12:33:08.405Z,2.70
2018-09-21T12:35:11.585Z,1.53
2018-09-21T12:37:14.784Z,2.23
2018-09-21T12:39:18.287Z,1.60
2018-09-21T12:41:21.820Z,1.20
2018-09-21T12:43:25.017Z,1.77
2018-09-21T12:45:28.242Z,2.07
2018-09-21T12:47:31.892Z,1.90
2018-09-21T12:49:36.425Z,2.03
2018-09-21T12:51:39.609Z,1.63
2018-09-21T12:53:42.796Z,2.37
2018-09-21T12:55:45.983Z,2.30
2018-09-21T12:57:49.243Z,1.73
2018-09-21T12:59:52.768Z,1.40
2018-09-21T13:01:55.941Z,1.70
2018-09-21T13:03:59.709Z,2.37
2018-09-21T13:06:03.248Z,2.20
2018-09-21T13:08:06.567Z,3.03
2018-09-21T13:10:09.771Z,2.33
2018-09-21T13:12:13.525Z,2.67
2018-09-21T13:14:16.721Z,2.00
2018-09-21T13:16:20.104Z,2.50
2018-09-21T13:18:23.303Z,2.50
2018-09-21T13:20:26.554Z,2.63
2018-09-21T13:22:30.433Z,2.30
2018-09-21T13:24:33.653Z,2.73
2018-09-21T13:26:36.910Z,1.40
2018-09-21T13:28:40.297Z,2.27
2018-09-21T13:30:43.884Z,2.43
2018-09-21T13:32:47.048Z,2.13
2018-09-21T13:34:50.773Z,1.80
2018-09-21T13:36:53.960Z,2.27
2018-09-21T13:38:57.133Z,1.50
2018-09-21T13:41:00.718Z,2.10
2018-09-21T13:43:04.237Z,1.13
2018-09-21T13:45:07.600Z,2.23
2018-09-21T13:47:11.129Z,2.87
2018-09-21T13:49:14.303Z,2.27
2018-09-21T13:51:17.468Z,2.27
2018-09-21T13:53:21.373Z,1.70
2018-09-21T13:55:24.537Z,2.13
2018-09-21T13:57:27.732Z,3.30
2018-09-21T13:59:31.013Z,1.57
2018-09-21T14:01:34.632Z,2.00
2018-09-21T14:03:37.803Z,2.87
2018-09-21T14:05:41.053Z,1.97
2018-09-21T14:07:44.449Z,1.17
2018-09-21T14:09:47.615Z,2.00
2018-09-21T14:11:51.412Z,1.27
2018-09-21T14:13:55.028Z,1.07
2018-09-21T14:15:58.406Z,1.37
2018-09-21T14:18:02.132Z,1.20
2018-09-21T14:20:05.396Z,1.13
2018-09-21T14:22:08.562Z,1.17
2018-09-21T14:24:13.260Z,1.13
2018-09-21T14:26:16.448Z,1.13
2018-09-21T14:28:19.804Z,1.27
2018-09-21T14:30:23.156Z,0.90
2018-09-21T14:32:26.352Z,1.07
2018-09-21T14:34:29.565Z,0.90
2018-09-21T14:36:32.768Z,0.90
2018-09-21T14:38:35.981Z,1.00
2018-09-21T14:40:39.152Z,1.40
2018-09-21T14:42:42.790Z,1.20
2018-09-21T14:44:46.089Z,1.03
2018-09-21T14:46:49.297Z,0.70
2018-09-21T14:48:52.712Z,1.53
2018-09-21T14:50:55.876Z,1.10
2018-09-21T14:52:59.105Z,1.10
2018-09-21T14:55:02.682Z,1.00
2018-09-21T14:57:06.648Z,1.00
2018-09-21T14:59:09.825Z,0.87
2018-09-21T15:01:13.395Z,1.13
2018-09-21T15:03:17.125Z,1.20
2018-09-21T15:05:20.349Z,1.10
2018-09-21T15:07:23.516Z,1.40
2018-09-21T15:09:26.704Z,1.10
2018-09-21T15:11:29.900Z,0.90
2018-09-21T15:13:33.072Z,1.10
2018-09-21T15:15:36.454Z,0.93
2018-09-21T15:17:39.633Z,1.17
2018-09-21T15:19:42.909Z,1.10
2018-09-21T15:21:46.609Z,0.87
2018-09-21T15:23:49.780Z,1.10
2018-09-21T15:25:52.978Z,1.20
2018-09-21T15:27:56.161Z,1.33
2018-09-21T15:29:59.694Z,1.70
2018-09-21T15:32:03.117Z,1.87
2018-09-21T15:34:06.366Z,1.10
2018-09-21T15:36:09.536Z,1.13
2018-09-21T15:38:13.057Z,1.57
2018-09-21T15:40:16.304Z,0.93
2018-09-21T15:42:19.472Z,1.30
2018-09-21T15:44:22.664Z,1.30
2018-09-21T15:46:25.872Z,1.00
2018-09-21T15:48:29.061Z,0.80
2018-09-21T15:50:32.722Z,1.00
2018-09-21T15:52:36.121Z,1.07
2018-09-21T15:54:40.756Z,0.80
2018-09-21T15:56:44.208Z,1.20
2018-09-21T15:58:47.404Z,0.80
2018-09-21T16:00:50.860Z,1.00
2018-09-21T16:02:54.034Z,1.07
2018-09-21T16:04:57.236Z,1.23
2018-09-21T16:07:00.578Z,0.97
2018-09-21T16:09:06.664Z,1.30
2018-09-21T16:11:09.973Z,1.33
2018-09-21T16:13:13.493Z,1.33
2018-09-21T16:15:16.680Z,1.00
2018-09-21T16:17:20.109Z,0.80
2018-09-21T16:19:23.361Z,1.33
2018-09-21T16:21:26.573Z,0.93
2018-09-21T16:23:30.341Z,0.90
2018-09-21T16:25:33.618Z,1.00
2018-09-21T16:27:36.900Z,0.90
2018-09-21T16:29:40.095Z,1.20
2018-09-21T16:31:43.628Z,1.30
2018-09-21T16:33:46.844Z,1.03
2018-09-21T16:35:50.048Z,1.37
2018-09-21T16:37:53.665Z,0.90
2018-09-21T16:39:56.872Z,0.97
2018-09-21T16:42:01.784Z,1.40
2018-09-21T16:44:05.612Z,1.00
2018-09-21T16:46:23.773Z,0.70
2018-09-21T16:48:35.537Z,0.90
2018-09-21T16:50:38.923Z,1.00
2018-09-21T16:52:42.190Z,1.10
2018-09-21T16:54:45.357Z,1.13
2018-09-21T16:56:48.667Z,1.00
2018-09-21T16:58:52.306Z,1.43
2018-09-21T17:00:55.653Z,1.07
2018-09-21T17:02:59.508Z,1.53
2018-09-21T17:05:02.688Z,0.90
2018-09-21T17:07:06.449Z,1.30
2018-09-21T17:09:11.889Z,1.13
2018-09-21T17:11:15.665Z,1.50
2018-09-21T17:13:18.987Z,0.93
2018-09-21T17:15:22.173Z,0.60
2018-09-21T17:17:25.590Z,1.23
2018-09-21T17:19:29.300Z,1.20
2018-09-21T17:21:32.485Z,1.20
2018-09-21T17:23:35.973Z,1.10
2018-09-21T17:25:39.182Z,0.93
2018-09-21T17:27:42.577Z,1.00
2018-09-21T17:29:46.151Z,1.00
2018-09-21T17:31:49.365Z,1.77
2018-09-21T17:33:52.615Z,1.10
2018-09-21T17:35:55.798Z,0.97
2018-09-21T17:37:59.253Z,0.80
2018-09-21T17:40:02.741Z,1.60
2018-09-21T17:42:06.204Z,0.90
2018-09-21T17:44:09.613Z,1.63
2018-09-21T17:46:12.828Z,1.10
2018-09-21T17:48:16.052Z,1.03
2018-09-21T17:50:19.231Z,1.17
2018-09-21T17:52:22.746Z,1.00
2018-09-21T17:54:25.952Z,0.90
2018-09-21T17:56:29.176Z,1.10
2018-09-21T17:58:32.514Z,1.10
2018-09-21T18:00:35.700Z,0.97
2018-09-21T18:02:38.872Z,1.30
2018-09-21T18:04:42.071Z,0.90
2018-09-21T18:06:46.621Z,1.33
2018-09-21T18:08:49.828Z,1.77
2018-09-21T18:10:53.014Z,0.80
2018-09-21T18:12:56.473Z,1.30
2018-09-21T18:14:59.661Z,1.30
2018-09-21T18:17:02.849Z,1.27
2018-09-21T18:19:06.572Z,1.60
2018-09-21T18:21:09.760Z,1.50
2018-09-21T18:23:12.993Z,1.10
2018-09-21T18:25:16.177Z,1.80
2018-09-21T18:27:19.422Z,1.50
2018-09-21T18:29:22.651Z,1.10
2018-09-21T18:31:26.187Z,1.70
2018-09-21T18:33:29.567Z,1.10
2018-09-21T18:35:32.768Z,1.20
2018-09-21T18:37:36.249Z,1.00
2018-09-21T18:39:39.508Z,1.30
2018-09-21T18:41:42.820Z,0.90
2018-09-21T18:43:46.164Z,1.30
2018-09-21T18:45:49.394Z,0.90
2018-09-21T18:47:52.583Z,1.20
2018-09-21T18:49:55.801Z,1.00
2018-09-21T18:51:59.408Z,1.10
2018-09-21T18:54:02.828Z,1.03
2018-09-21T18:56:06.035Z,0.93
2018-09-21T18:58:09.280Z,0.80
2018-09-21T19:00:12.816Z,0.97
2018-09-21T19:02:16.068Z,1.50
2018-09-21T19:04:19.608Z,1.20
2018-09-21T19:06:22.900Z,1.00
2018-09-21T19:08:26.727Z,1.00
2018-09-21T19:10:30.323Z,0.90
2018-09-21T19:12:33.520Z,1.10
2018-09-21T19:14:37.006Z,1.00
2018-09-21T19:16:40.187Z,1.03
2018-09-21T19:18:43.392Z,1.00
2018-09-21T19:20:46.953Z,1.37
2018-09-21T19:22:50.104Z,1.10
2018-09-21T19:24:53.499Z,0.93
2018-09-21T19:26:56.836Z,0.90
2018-09-21T19:29:00.059Z,1.03
2018-09-21T19:31:03.579Z,0.93
2018-09-21T19:33:07.196Z,1.40
2018-09-21T19:35:10.555Z,1.20
2018-09-21T19:37:13.760Z,0.97
2018-09-21T19:39:17.056Z,1.37
2018-09-21T19:41:20.378Z,0.80
2018-09-21T19:43:23.572Z,0.93
2018-09-21T19:45:26.906Z,0.70
2018-09-21T19:47:30.236Z,1.23
2018-09-21T19:49:33.460Z,0.80
2018-09-21T19:51:36.840Z,0.73
2018-09-21T19:53:40.064Z,0.70
2018-09-21T19:55:43.235Z,0.77
2018-09-21T19:57:46.712Z,0.83
2018-09-21T19:59:49.971Z,0.73
2018-09-21T20:01:53.163Z,0.90
2018-09-21T20:03:56.780Z,0.70
2018-09-21T20:06:00.033Z,1.00
2018-09-21T20:08:03.216Z,0.70
2018-09-21T20:10:07.072Z,1.10
2018-09-21T20:12:10.282Z,0.97
2018-09-21T20:14:13.466Z,0.70
2018-09-21T20:16:16.957Z,0.70
2018-09-21T20:18:20.291Z,0.60
2018-09-21T20:20:23.466Z,0.77
2018-09-21T20:22:26.668Z,1.00
2018-09-21T20:24:29.848Z,0.60
2018-09-21T20:26:33.136Z,0.80
2018-09-21T20:28:36.355Z,0.60
2018-09-21T20:30:44.940Z,0.70
2018-09-21T20:32:53.874Z,0.80
2018-09-21T20:34:57.195Z,0.93
2018-09-21T20:37:00.473Z,0.70
2018-09-21T20:39:05.045Z,0.83
2018-09-21T20:41:08.477Z,0.80
2018-09-21T20:43:11.854Z,0.70
2018-09-21T20:45:15.062Z,0.93
2018-09-21T20:47:18.446Z,0.83
2018-09-21T20:49:22.043Z,0.80
2018-09-21T20:51:25.265Z,0.70
2018-09-21T20:53:28.800Z,0.80
2018-09-21T20:55:32.319Z,0.80
2018-09-21T20:57:35.521Z,0.90
2018-09-21T20:59:38.717Z,1.10
2018-09-21T21:01:41.893Z,0.77
2018-09-21T21:03:45.105Z,0.93
2018-09-21T21:05:48.312Z,0.90
2018-09-21T21:07:52.350Z,0.80
2018-09-21T21:09:55.521Z,0.73
2018-09-21T21:11:59.183Z,0.83
2018-09-21T21:14:02.423Z,1.00
2018-09-21T21:16:05.994Z,1.40
2018-09-21T21:18:09.188Z,0.73
2018-09-21T21:20:12.381Z,1.13
2018-09-21T21:22:15.658Z,1.30
2018-09-21T21:24:19.077Z,0.87
2018-09-21T21:26:22.287Z,0.70
2018-09-21T21:28:25.485Z,0.80
2018-09-21T21:30:29.812Z,0.90
2018-09-21T21:32:33.079Z,0.83
2018-09-21T21:34:36.917Z,0.80
2018-09-21T21:36:40.601Z,0.80
2018-09-21T21:38:43.828Z,0.70
2018-09-21T21:40:47.516Z,0.90
2018-09-21T21:42:50.780Z,0.70
2018-09-21T21:44:54.508Z,0.80
2018-09-21T21:46:57.812Z,0.80
2018-09-21T21:49:01.272Z,0.83
2018-09-21T21:51:04.484Z,0.90
2018-09-21T21:53:08.129Z,0.80
2018-09-21T21:55:11.300Z,0.73
2018-09-21T21:57:14.524Z,0.70
2018-09-21T21:59:17.716Z,0.80
2018-09-21T22:01:26.614Z,1.00
2018-09-21T22:03:29.801Z,0.67
2018-09-21T22:05:33.023Z,0.77
2018-09-21T22:07:37.381Z,0.70
2018-09-21T22:09:41.117Z,0.80
2018-09-21T22:11:49.952Z,0.60
2018-09-21T22:13:58.680Z,0.70
2018-09-21T22:16:01.860Z,0.87
2018-09-21T22:18:05.615Z,0.93
2018-09-21T22:20:09.315Z,0.70
2018-09-21T22:22:12.552Z,0.70
2018-09-21T22:24:16.165Z,0.83
2018-09-21T22:26:19.420Z,0.90
2018-09-21T22:28:22.719Z,0.80
2018-09-21T22:30:25.940Z,0.70
2018-09-21T22:32:29.357Z,0.77
2018-09-21T22:34:32.602Z,0.67
2018-09-21T22:36:35.816Z,0.80
2018-09-21T22:38:38.992Z,1.50
2018-09-21T22:40:42.372Z,0.80
2018-09-21T22:42:45.617Z,0.90
2018-09-21T22:44:48.829Z,1.00
2018-09-21T22:46:52.189Z,0.90
2018-09-21T22:48:56.540Z,0.60
2018-09-21T22:50:59.767Z,0.80
2018-09-21T22:53:03.526Z,0.60
2018-09-21T22:55:07.137Z,0.83
2018-09-21T22:57:10.344Z,1.40
2018-09-21T22:59:13.913Z,0.83
2018-09-21T23:01:17.815Z,0.80
2018-09-21T23:03:21.012Z,0.80
2018-09-21T23:05:24.552Z,0.80
2018-09-21T23:07:27.732Z,0.70
2018-09-21T23:09:30.916Z,0.70
2018-09-21T23:11:34.100Z,0.80
2018-09-21T23:13:37.300Z,0.93
2018-09-21T23:15:40.652Z,0.70
2018-09-21T23:17:43.840Z,0.70
2018-09-21T23:19:47.373Z,0.90
2018-09-21T23:21:51.144Z,1.00
2018-09-21T23:23:54.395Z,1.00
2018-09-21T23:25:57.561Z,0.70
2018-09-21T23:28:00.913Z,0.90
2018-09-21T23:30:04.109Z,1.10
2018-09-21T23:32:07.304Z,0.90
2018-09-21T23:34:10.660Z,1.10
2018-09-21T23:36:14.076Z,0.70
2018-09-21T23:38:17.341Z,1.00
2018-09-21T23:40:20.509Z,1.10
2018-09-21T23:42:23.924Z,1.20
2018-09-21T23:44:27.183Z,1.10
2018-09-21T23:46:30.353Z,0.90
2018-09-21T23:48:33.628Z,0.90
2018-09-21T23:50:36.812Z,1.03
2018-09-21T23:52:40.032Z,1.00
2018-09-21T23:54:43.234Z,1.00
2018-09-21T23:56:46.444Z,0.80
2018-09-21T23:58:49.641Z,1.03
